Terminal Aerodrome Forecast
Issued by NWS

Current Version | Previous Version | Text Only | Print | Product List | Glossary On
Versions: 1 2 3 4 5 6 7 8 9 10 11 12 13 14 15 16 17 18
000
FTUS42 KEYW 171700 RRA
TAFMTH
TAF
KMTH 171754Z 1718/1818 09010KT P6SM FEW015 SCT025
     FM172100 08011KT P6SM SCT015 SCT050
     FM180300 10012G17KT P6SM VCTS SCT015CB SCT025 BKN050
     FM180900 12009G16KT P6SM BKN250=

USA.gov is the U.S. government's official web portal to all federal, state and local government web resources and services.